sensor_id;sensor_type;location;lat;lon;timestamp;P1;durP1;ratioP1;P2;durP2;ratioP2
10605;SDS011;5350;42.698;23.148;2023-04-15T00:01:48;3.83;;;1.87;;
10605;SDS011;5350;42.698;23.148;2023-04-15T00:04:15;4.17;;;2.20;;
10605;SDS011;5350;42.698;23.148;2023-04-15T00:06:43;4.13;;;2.43;;
10605;SDS011;5350;42.698;23.148;2023-04-15T00:09:15;3.27;;;2.30;;
10605;SDS011;5350;42.698;23.148;2023-04-15T00:11:42;4.30;;;2.20;;
10605;SDS011;5350;42.698;23.148;2023-04-15T00:14:09;4.43;;;2.20;;
10605;SDS011;5350;42.698;23.148;2023-04-15T00:16:37;3.00;;;1.70;;
10605;SDS011;5350;42.698;23.148;2023-04-15T00:19:04;2.10;;;1.77;;
10605;SDS011;5350;42.698;23.148;2023-04-15T00:21:31;7.40;;;1.47;;
10605;SDS011;5350;42.698;23.148;2023-04-15T00:23:59;2.57;;;1.27;;
10605;SDS011;5350;42.698;23.148;2023-04-15T00:26:26;3.33;;;1.67;;
10605;SDS011;5350;42.698;23.148;2023-04-15T00:28:53;5.47;;;2.20;;
10605;SDS011;5350;42.698;23.148;2023-04-15T00:31:19;4.67;;;2.33;;
10605;SDS011;5350;42.698;23.148;2023-04-15T00:33:47;3.30;;;1.90;;
10605;SDS011;5350;42.698;23.148;2023-04-15T00:36:13;3.50;;;1.80;;
10605;SDS011;5350;42.698;23.148;2023-04-15T00:38:40;3.17;;;2.07;;
10605;SDS011;5350;42.698;23.148;2023-04-15T00:41:09;3.40;;;2.10;;
10605;SDS011;5350;42.698;23.148;2023-04-15T00:43:37;5.23;;;2.00;;
10605;SDS011;5350;42.698;23.148;2023-04-15T00:46:04;3.57;;;2.17;;
10605;SDS011;5350;42.698;23.148;2023-04-15T00:48:32;6.20;;;2.30;;
10605;SDS011;5350;42.698;23.148;2023-04-15T00:50:59;2.90;;;2.30;;
10605;SDS011;5350;42.698;23.148;2023-04-15T00:53:26;5.50;;;3.43;;
10605;SDS011;5350;42.698;23.148;2023-04-15T00:55:52;4.20;;;2.57;;
10605;SDS011;5350;42.698;23.148;2023-04-15T00:58:21;6.87;;;3.20;;
10605;SDS011;5350;42.698;23.148;2023-04-15T01:00:48;3.50;;;1.43;;
10605;SDS011;5350;42.698;23.148;2023-04-15T01:03:18;3.80;;;2.03;;
10605;SDS011;5350;42.698;23.148;2023-04-15T01:05:45;4.50;;;1.50;;
10605;SDS011;5350;42.698;23.148;2023-04-15T01:08:11;3.20;;;1.50;;
10605;SDS011;5350;42.698;23.148;2023-04-15T01:10:39;3.17;;;1.70;;
10605;SDS011;5350;42.698;23.148;2023-04-15T01:13:05;3.73;;;1.40;;
10605;SDS011;5350;42.698;23.148;2023-04-15T01:15:34;2.40;;;1.40;;
10605;SDS011;5350;42.698;23.148;2023-04-15T01:18:01;3.20;;;1.57;;
10605;SDS011;5350;42.698;23.148;2023-04-15T01:20:28;3.97;;;1.40;;
10605;SDS011;5350;42.698;23.148;2023-04-15T01:22:55;2.90;;;1.47;;
10605;SDS011;5350;42.698;23.148;2023-04-15T01:25:27;3.70;;;1.00;;
10605;SDS011;5350;42.698;23.148;2023-04-15T01:27:57;2.43;;;1.20;;
10605;SDS011;5350;42.698;23.148;2023-04-15T01:30:24;1.20;;;1.00;;
10605;SDS011;5350;42.698;23.148;2023-04-15T01:32:51;3.37;;;1.03;;
10605;SDS011;5350;42.698;23.148;2023-04-15T01:35:17;2.17;;;0.80;;
10605;SDS011;5350;42.698;23.148;2023-04-15T01:37:45;3.00;;;0.90;;
10605;SDS011;5350;42.698;23.148;2023-04-15T01:40:12;2.03;;;0.90;;
10605;SDS011;5350;42.698;23.148;2023-04-15T01:42:40;3.30;;;0.87;;
10605;SDS011;5350;42.698;23.148;2023-04-15T01:45:08;1.87;;;0.90;;
10605;SDS011;5350;42.698;23.148;2023-04-15T01:47:35;2.67;;;1.20;;
10605;SDS011;5350;42.698;23.148;2023-04-15T01:50:01;1.30;;;1.00;;
10605;SDS011;5350;42.698;23.148;2023-04-15T01:52:28;1.17;;;1.00;;
10605;SDS011;5350;42.698;23.148;2023-04-15T01:54:56;2.27;;;0.90;;
10605;SDS011;5350;42.698;23.148;2023-04-15T01:57:22;3.73;;;1.47;;
10605;SDS011;5350;42.698;23.148;2023-04-15T01:59:50;3.23;;;1.40;;
10605;SDS011;5350;42.698;23.148;2023-04-15T02:02:17;2.17;;;1.20;;
10605;SDS011;5350;42.698;23.148;2023-04-15T02:04:44;5.07;;;1.53;;
10605;SDS011;5350;42.698;23.148;2023-04-15T02:07:11;3.23;;;1.63;;
10605;SDS011;5350;42.698;23.148;2023-04-15T02:09:38;2.93;;;1.73;;
10605;SDS011;5350;42.698;23.148;2023-04-15T02:12:05;7.10;;;1.93;;
10605;SDS011;5350;42.698;23.148;2023-04-15T02:14:31;3.87;;;1.57;;
10605;SDS011;5350;42.698;23.148;2023-04-15T02:16:59;3.00;;;1.63;;
10605;SDS011;5350;42.698;23.148;2023-04-15T02:19:31;3.00;;;1.70;;
10605;SDS011;5350;42.698;23.148;2023-04-15T02:21:57;4.20;;;1.80;;
10605;SDS011;5350;42.698;23.148;2023-04-15T02:24:26;3.77;;;1.90;;
10605;SDS011;5350;42.698;23.148;2023-04-15T02:26:53;3.13;;;1.43;;
10605;SDS011;5350;42.698;23.148;2023-04-15T02:29:20;3.07;;;1.70;;
10605;SDS011;5350;42.698;23.148;2023-04-15T02:31:47;4.17;;;2.10;;
10605;SDS011;5350;42.698;23.148;2023-04-15T02:34:15;3.93;;;3.30;;
10605;SDS011;5350;42.698;23.148;2023-04-15T02:36:42;5.03;;;2.37;;
10605;SDS011;5350;42.698;23.148;2023-04-15T02:39:09;3.00;;;1.60;;
10605;SDS011;5350;42.698;23.148;2023-04-15T02:41:38;6.23;;;2.50;;
10605;SDS011;5350;42.698;23.148;2023-04-15T02:44:07;3.77;;;2.03;;
10605;SDS011;5350;42.698;23.148;2023-04-15T02:46:34;4.77;;;2.03;;
10605;SDS011;5350;42.698;23.148;2023-04-15T02:49:00;4.93;;;2.27;;
10605;SDS011;5350;42.698;23.148;2023-04-15T02:51:29;3.30;;;2.43;;
10605;SDS011;5350;42.698;23.148;2023-04-15T02:53:56;4.10;;;2.23;;
10605;SDS011;5350;42.698;23.148;2023-04-15T02:56:23;4.43;;;2.70;;
10605;SDS011;5350;42.698;23.148;2023-04-15T02:58:50;10.17;;;3.67;;
10605;SDS011;5350;42.698;23.148;2023-04-15T03:01:20;5.50;;;2.70;;
10605;SDS011;5350;42.698;23.148;2023-04-15T03:03:46;3.50;;;1.90;;
10605;SDS011;5350;42.698;23.148;2023-04-15T03:06:13;3.67;;;2.00;;
10605;SDS011;5350;42.698;23.148;2023-04-15T03:08:41;4.83;;;2.27;;
10605;SDS011;5350;42.698;23.148;2023-04-15T03:11:08;3.03;;;1.90;;
10605;SDS011;5350;42.698;23.148;2023-04-15T03:13:35;4.87;;;3.07;;
10605;SDS011;5350;42.698;23.148;2023-04-15T03:16:03;5.03;;;2.40;;
10605;SDS011;5350;42.698;23.148;2023-04-15T03:18:30;4.53;;;2.50;;
10605;SDS011;5350;42.698;23.148;2023-04-15T03:20:57;3.67;;;1.93;;
10605;SDS011;5350;42.698;23.148;2023-04-15T03:23:24;5.83;;;1.80;;
10605;SDS011;5350;42.698;23.148;2023-04-15T03:25:52;3.20;;;2.10;;
10605;SDS011;5350;42.698;23.148;2023-04-15T03:28:21;6.80;;;3.00;;
10605;SDS011;5350;42.698;23.148;2023-04-15T03:30:47;7.37;;;4.10;;
10605;SDS011;5350;42.698;23.148;2023-04-15T03:33:14;11.90;;;5.73;;
10605;SDS011;5350;42.698;23.148;2023-04-15T03:35:41;6.37;;;3.37;;
10605;SDS011;5350;42.698;23.148;2023-04-15T03:38:08;3.87;;;2.60;;
10605;SDS011;5350;42.698;23.148;2023-04-15T03:40:34;5.63;;;2.70;;
10605;SDS011;5350;42.698;23.148;2023-04-15T03:43:02;8.53;;;1.97;;
10605;SDS011;5350;42.698;23.148;2023-04-15T03:45:29;2.27;;;1.80;;
10605;SDS011;5350;42.698;23.148;2023-04-15T03:47:56;4.53;;;2.30;;
10605;SDS011;5350;42.698;23.148;2023-04-15T03:50:23;2.37;;;1.70;;
10605;SDS011;5350;42.698;23.148;2023-04-15T03:52:50;5.77;;;3.33;;
10605;SDS011;5350;42.698;23.148;2023-04-15T03:55:16;4.33;;;3.13;;
10605;SDS011;5350;42.698;23.148;2023-04-15T03:57:43;6.03;;;2.20;;
10605;SDS011;5350;42.698;23.148;2023-04-15T04:00:12;3.00;;;1.80;;
10605;SDS011;5350;42.698;23.148;2023-04-15T04:02:39;3.03;;;1.80;;
10605;SDS011;5350;42.698;23.148;2023-04-15T04:05:06;4.80;;;2.10;;
10605;SDS011;5350;42.698;23.148;2023-04-15T04:07:33;4.50;;;1.80;;
10605;SDS011;5350;42.698;23.148;2023-04-15T04:10:01;3.47;;;2.20;;
10605;SDS011;5350;42.698;23.148;2023-04-15T04:12:28;3.90;;;2.07;;
10605;SDS011;5350;42.698;23.148;2023-04-15T04:14:54;7.23;;;3.47;;
10605;SDS011;5350;42.698;23.148;2023-04-15T04:17:22;4.03;;;2.50;;
10605;SDS011;5350;42.698;23.148;2023-04-15T04:19:49;4.10;;;2.33;;
10605;SDS011;5350;42.698;23.148;2023-04-15T04:22:16;3.80;;;1.77;;
10605;SDS011;5350;42.698;23.148;2023-04-15T04:24:42;5.67;;;3.47;;
10605;SDS011;5350;42.698;23.148;2023-04-15T04:27:09;6.83;;;4.73;;
10605;SDS011;5350;42.698;23.148;2023-04-15T04:29:36;5.27;;;3.70;;
10605;SDS011;5350;42.698;23.148;2023-04-15T04:32:03;6.40;;;3.60;;
10605;SDS011;5350;42.698;23.148;2023-04-15T04:34:31;7.23;;;3.73;;
10605;SDS011;5350;42.698;23.148;2023-04-15T04:36:57;6.80;;;4.20;;
10605;SDS011;5350;42.698;23.148;2023-04-15T04:39:24;6.27;;;3.83;;
10605;SDS011;5350;42.698;23.148;2023-04-15T04:41:51;7.03;;;4.07;;
10605;SDS011;5350;42.698;23.148;2023-04-15T04:44:18;10.10;;;3.03;;
10605;SDS011;5350;42.698;23.148;2023-04-15T04:46:45;7.00;;;2.53;;
10605;SDS011;5350;42.698;23.148;2023-04-15T04:49:11;5.37;;;2.33;;
10605;SDS011;5350;42.698;23.148;2023-04-15T04:51:39;8.97;;;2.67;;
10605;SDS011;5350;42.698;23.148;2023-04-15T04:54:06;8.57;;;3.90;;
10605;SDS011;5350;42.698;23.148;2023-04-15T04:56:33;7.30;;;3.60;;
10605;SDS011;5350;42.698;23.148;2023-04-15T04:59:00;7.43;;;3.47;;
10605;SDS011;5350;42.698;23.148;2023-04-15T05:01:27;8.67;;;3.63;;
10605;SDS011;5350;42.698;23.148;2023-04-15T05:03:54;5.93;;;2.93;;
10605;SDS011;5350;42.698;23.148;2023-04-15T05:06:20;5.20;;;2.47;;
10605;SDS011;5350;42.698;23.148;2023-04-15T05:08:49;6.10;;;3.77;;
10605;SDS011;5350;42.698;23.148;2023-04-15T05:11:15;4.90;;;2.70;;
10605;SDS011;5350;42.698;23.148;2023-04-15T05:13:42;4.10;;;2.67;;
10605;SDS011;5350;42.698;23.148;2023-04-15T05:16:09;5.40;;;2.33;;
10605;SDS011;5350;42.698;23.148;2023-04-15T05:18:35;5.70;;;2.23;;
10605;SDS011;5350;42.698;23.148;2023-04-15T05:21:02;4.47;;;2.30;;
10605;SDS011;5350;42.698;23.148;2023-04-15T05:23:29;5.83;;;2.73;;
10605;SDS011;5350;42.698;23.148;2023-04-15T05:25:57;6.10;;;2.77;;
10605;SDS011;5350;42.698;23.148;2023-04-15T05:28:24;6.30;;;2.87;;
10605;SDS011;5350;42.698;23.148;2023-04-15T05:30:51;6.30;;;2.57;;
10605;SDS011;5350;42.698;23.148;2023-04-15T05:33:18;13.67;;;5.83;;
10605;SDS011;5350;42.698;23.148;2023-04-15T05:35:44;6.43;;;2.70;;
10605;SDS011;5350;42.698;23.148;2023-04-15T05:38:11;4.90;;;2.67;;
10605;SDS011;5350;42.698;23.148;2023-04-15T05:40:38;4.43;;;2.60;;
10605;SDS011;5350;42.698;23.148;2023-04-15T05:43:06;4.47;;;1.33;;
10605;SDS011;5350;42.698;23.148;2023-04-15T05:45:33;3.13;;;1.10;;
10605;SDS011;5350;42.698;23.148;2023-04-15T05:48:00;1.63;;;0.80;;
10605;SDS011;5350;42.698;23.148;2023-04-15T05:50:26;3.97;;;1.20;;
10605;SDS011;5350;42.698;23.148;2023-04-15T05:52:53;4.87;;;1.00;;
10605;SDS011;5350;42.698;23.148;2023-04-15T05:55:20;3.40;;;0.80;;
10605;SDS011;5350;42.698;23.148;2023-04-15T05:57:47;1.50;;;0.40;;
10605;SDS011;5350;42.698;23.148;2023-04-15T06:00:15;3.17;;;0.70;;
10605;SDS011;5350;42.698;23.148;2023-04-15T06:02:42;3.63;;;0.57;;
10605;SDS011;5350;42.698;23.148;2023-04-15T06:05:09;3.90;;;0.73;;
10605;SDS011;5350;42.698;23.148;2023-04-15T06:07:36;4.10;;;0.83;;
10605;SDS011;5350;42.698;23.148;2023-04-15T06:10:04;6.80;;;1.40;;
10605;SDS011;5350;42.698;23.148;2023-04-15T06:12:32;4.07;;;0.87;;
10605;SDS011;5350;42.698;23.148;2023-04-15T06:14:58;2.87;;;1.30;;
10605;SDS011;5350;42.698;23.148;2023-04-15T06:17:26;4.40;;;1.13;;
10605;SDS011;5350;42.698;23.148;2023-04-15T06:19:53;2.30;;;0.97;;
10605;SDS011;5350;42.698;23.148;2023-04-15T06:22:20;3.43;;;1.20;;
10605;SDS011;5350;42.698;23.148;2023-04-15T06:24:47;3.90;;;1.13;;
10605;SDS011;5350;42.698;23.148;2023-04-15T06:27:14;4.80;;;1.30;;
10605;SDS011;5350;42.698;23.148;2023-04-15T06:29:41;5.10;;;2.33;;
10605;SDS011;5350;42.698;23.148;2023-04-15T06:32:08;5.47;;;1.20;;
10605;SDS011;5350;42.698;23.148;2023-04-15T06:34:36;5.73;;;1.50;;
10605;SDS011;5350;42.698;23.148;2023-04-15T06:37:03;3.13;;;1.03;;
10605;SDS011;5350;42.698;23.148;2023-04-15T06:39:30;7.73;;;1.50;;
10605;SDS011;5350;42.698;23.148;2023-04-15T06:41:56;8.13;;;1.40;;
10605;SDS011;5350;42.698;23.148;2023-04-15T06:44:23;5.47;;;1.73;;
10605;SDS011;5350;42.698;23.148;2023-04-15T06:46:50;2.73;;;0.90;;
10605;SDS011;5350;42.698;23.148;2023-04-15T06:49:16;7.57;;;1.97;;
10605;SDS011;5350;42.698;23.148;2023-04-15T06:51:45;5.93;;;0.73;;
10605;SDS011;5350;42.698;23.148;2023-04-15T06:54:11;6.53;;;0.90;;
10605;SDS011;5350;42.698;23.148;2023-04-15T06:56:38;5.43;;;0.80;;
10605;SDS011;5350;42.698;23.148;2023-04-15T06:59:06;1.20;;;0.37;;
10605;SDS011;5350;42.698;23.148;2023-04-15T07:01:32;1.63;;;0.57;;
10605;SDS011;5350;42.698;23.148;2023-04-15T07:03:59;1.50;;;0.40;;
10605;SDS011;5350;42.698;23.148;2023-04-15T07:06:26;1.90;;;0.40;;
10605;SDS011;5350;42.698;23.148;2023-04-15T07:08:54;2.33;;;0.40;;
10605;SDS011;5350;42.698;23.148;2023-04-15T07:11:21;1.23;;;0.57;;
10605;SDS011;5350;42.698;23.148;2023-04-15T07:13:48;3.13;;;0.60;;
10605;SDS011;5350;42.698;23.148;2023-04-15T07:16:14;2.77;;;0.60;;
10605;SDS011;5350;42.698;23.148;2023-04-15T07:18:42;4.70;;;0.60;;
10605;SDS011;5350;42.698;23.148;2023-04-15T07:21:09;0.50;;;0.37;;
10605;SDS011;5350;42.698;23.148;2023-04-15T07:23:36;1.80;;;0.30;;
10605;SDS011;5350;42.698;23.148;2023-04-15T07:26:04;2.60;;;0.67;;
10605;SDS011;5350;42.698;23.148;2023-04-15T07:28:31;1.90;;;0.30;;
10605;SDS011;5350;42.698;23.148;2023-04-15T07:30:58;2.83;;;0.50;;
10605;SDS011;5350;42.698;23.148;2023-04-15T07:33:25;0.83;;;0.50;;
10605;SDS011;5350;42.698;23.148;2023-04-15T07:35:51;3.17;;;1.03;;
10605;SDS011;5350;42.698;23.148;2023-04-15T07:38:18;4.23;;;0.50;;
10605;SDS011;5350;42.698;23.148;2023-04-15T07:40:45;2.67;;;0.40;;
10605;SDS011;5350;42.698;23.148;2023-04-15T07:43:13;4.10;;;0.37;;
10605;SDS011;5350;42.698;23.148;2023-04-15T07:45:40;2.07;;;0.40;;
10605;SDS011;5350;42.698;23.148;2023-04-15T07:48:07;1.57;;;0.40;;
10605;SDS011;5350;42.698;23.148;2023-04-15T07:50:34;3.40;;;0.80;;
10605;SDS011;5350;42.698;23.148;2023-04-15T07:53:00;5.53;;;1.57;;
10605;SDS011;5350;42.698;23.148;2023-04-15T07:55:27;0.87;;;0.50;;
10605;SDS011;5350;42.698;23.148;2023-04-15T07:57:54;1.53;;;1.00;;
10605;SDS011;5350;42.698;23.148;2023-04-15T08:00:23;2.43;;;0.30;;
10605;SDS011;5350;42.698;23.148;2023-04-15T08:02:50;1.20;;;0.30;;
10605;SDS011;5350;42.698;23.148;2023-04-15T08:05:18;1.00;;;0.57;;
10605;SDS011;5350;42.698;23.148;2023-04-15T08:07:45;3.10;;;0.67;;
10605;SDS011;5350;42.698;23.148;2023-04-15T08:10:12;0.90;;;0.30;;
10605;SDS011;5350;42.698;23.148;2023-04-15T08:12:39;1.87;;;0.37;;
10605;SDS011;5350;42.698;23.148;2023-04-15T08:15:07;1.77;;;0.32;;
10605;SDS011;5350;42.698;23.148;2023-04-15T08:17:35;2.00;;;0.73;;
10605;SDS011;5350;42.698;23.148;2023-04-15T08:20:02;2.03;;;0.40;;
10605;SDS011;5350;42.698;23.148;2023-04-15T08:22:30;1.90;;;0.60;;
10605;SDS011;5350;42.698;23.148;2023-04-15T08:24:57;2.63;;;0.50;;
10605;SDS011;5350;42.698;23.148;2023-04-15T08:27:24;1.23;;;0.40;;
10605;SDS011;5350;42.698;23.148;2023-04-15T08:29:52;0.40;;;0.30;;
10605;SDS011;5350;42.698;23.148;2023-04-15T08:32:18;2.67;;;0.60;;
10605;SDS011;5350;42.698;23.148;2023-04-15T08:34:46;3.03;;;0.50;;
10605;SDS011;5350;42.698;23.148;2023-04-15T08:37:13;2.77;;;0.50;;
10605;SDS011;5350;42.698;23.148;2023-04-15T08:39:40;2.90;;;0.90;;
10605;SDS011;5350;42.698;23.148;2023-04-15T08:42:10;1.08;;;0.38;;
10605;SDS011;5350;42.698;23.148;2023-04-15T08:44:42;1.58;;;0.40;;
10605;SDS011;5350;42.698;23.148;2023-04-15T08:47:09;4.22;;;0.60;;
10605;SDS011;5350;42.698;23.148;2023-04-15T08:49:39;0.68;;;0.28;;
10605;SDS011;5350;42.698;23.148;2023-04-15T08:52:07;2.88;;;0.50;;
10605;SDS011;5350;42.698;23.148;2023-04-15T08:54:35;1.58;;;0.40;;
10605;SDS011;5350;42.698;23.148;2023-04-15T08:57:02;0.73;;;0.43;;
10605;SDS011;5350;42.698;23.148;2023-04-15T08:59:29;1.48;;;0.40;;
10605;SDS011;5350;42.698;23.148;2023-04-15T09:01:56;1.83;;;0.28;;
10605;SDS011;5350;42.698;23.148;2023-04-15T09:04:23;1.83;;;0.60;;
10605;SDS011;5350;42.698;23.148;2023-04-15T09:06:50;1.27;;;0.63;;
10605;SDS011;5350;42.698;23.148;2023-04-15T09:09:18;0.85;;;0.20;;
10605;SDS011;5350;42.698;23.148;2023-04-15T09:11:45;1.75;;;0.40;;
10605;SDS011;5350;42.698;23.148;2023-04-15T09:14:14;1.67;;;0.30;;
10605;SDS011;5350;42.698;23.148;2023-04-15T09:16:56;0.82;;;0.30;;
10605;SDS011;5350;42.698;23.148;2023-04-15T09:19:24;1.13;;;0.52;;
10605;SDS011;5350;42.698;23.148;2023-04-15T09:21:52;1.45;;;1.00;;
10605;SDS011;5350;42.698;23.148;2023-04-15T09:24:21;1.70;;;0.50;;
10605;SDS011;5350;42.698;23.148;2023-04-15T09:26:51;2.88;;;0.80;;
10605;SDS011;5350;42.698;23.148;2023-04-15T09:29:19;1.15;;;0.40;;
10605;SDS011;5350;42.698;23.148;2023-04-15T09:31:49;2.80;;;0.40;;
10605;SDS011;5350;42.698;23.148;2023-04-15T09:34:16;1.17;;;0.40;;
10605;SDS011;5350;42.698;23.148;2023-04-15T09:36:53;1.65;;;0.30;;
10605;SDS011;5350;42.698;23.148;2023-04-15T09:39:23;1.55;;;0.70;;
10605;SDS011;5350;42.698;23.148;2023-04-15T09:42:05;0.63;;;0.10;;
10605;SDS011;5350;42.698;23.148;2023-04-15T09:44:32;2.60;;;0.40;;
10605;SDS011;5350;42.698;23.148;2023-04-15T09:46:59;0.88;;;0.82;;
10605;SDS011;5350;42.698;23.148;2023-04-15T09:49:26;0.77;;;0.28;;
10605;SDS011;5350;42.698;23.148;2023-04-15T09:51:56;1.27;;;0.32;;
10605;SDS011;5350;42.698;23.148;2023-04-15T09:54:28;0.57;;;0.10;;
10605;SDS011;5350;42.698;23.148;2023-04-15T09:57:03;0.65;;;0.10;;
10605;SDS011;5350;42.698;23.148;2023-04-15T09:59:31;0.95;;;0.68;;
10605;SDS011;5350;42.698;23.148;2023-04-15T10:01:58;0.73;;;0.13;;
10605;SDS011;5350;42.698;23.148;2023-04-15T10:04:26;0.15;;;0.10;;
10605;SDS011;5350;42.698;23.148;2023-04-15T10:06:53;1.85;;;0.20;;
10605;SDS011;5350;42.698;23.148;2023-04-15T10:09:21;2.20;;;0.30;;
10605;SDS011;5350;42.698;23.148;2023-04-15T10:11:49;2.53;;;0.20;;
10605;SDS011;5350;42.698;23.148;2023-04-15T10:14:17;1.35;;;0.50;;
10605;SDS011;5350;42.698;23.148;2023-04-15T10:16:44;1.27;;;0.22;;
10605;SDS011;5350;42.698;23.148;2023-04-15T10:19:14;2.13;;;0.70;;
10605;SDS011;5350;42.698;23.148;2023-04-15T10:21:44;3.70;;;1.23;;
10605;SDS011;5350;42.698;23.148;2023-04-15T10:24:11;1.88;;;0.90;;
10605;SDS011;5350;42.698;23.148;2023-04-15T10:26:38;1.25;;;0.30;;
10605;SDS011;5350;42.698;23.148;2023-04-15T10:29:07;0.68;;;0.20;;
10605;SDS011;5350;42.698;23.148;2023-04-15T10:31:35;2.17;;;0.30;;
10605;SDS011;5350;42.698;23.148;2023-04-15T10:34:04;2.85;;;0.85;;
10605;SDS011;5350;42.698;23.148;2023-04-15T10:36:31;1.63;;;0.70;;
10605;SDS011;5350;42.698;23.148;2023-04-15T10:38:58;0.68;;;0.40;;
10605;SDS011;5350;42.698;23.148;2023-04-15T10:41:25;0.73;;;0.20;;
10605;SDS011;5350;42.698;23.148;2023-04-15T10:43:55;1.40;;;0.30;;
10605;SDS011;5350;42.698;23.148;2023-04-15T10:46:34;1.30;;;0.40;;
10605;SDS011;5350;42.698;23.148;2023-04-15T10:49:06;1.30;;;0.60;;
10605;SDS011;5350;42.698;23.148;2023-04-15T10:51:33;1.48;;;0.40;;
10605;SDS011;5350;42.698;23.148;2023-04-15T10:54:06;0.50;;;0.40;;
10605;SDS011;5350;42.698;23.148;2023-04-15T10:56:35;1.95;;;0.40;;
10605;SDS011;5350;42.698;23.148;2023-04-15T10:59:02;1.85;;;0.40;;
10605;SDS011;5350;42.698;23.148;2023-04-15T11:01:52;1.42;;;0.32;;
10605;SDS011;5350;42.698;23.148;2023-04-15T11:07:35;1.95;;;0.50;;
10605;SDS011;5350;42.698;23.148;2023-04-15T11:10:02;2.15;;;0.60;;
10605;SDS011;5350;42.698;23.148;2023-04-15T11:12:50;0.95;;;0.20;;
10605;SDS011;5350;42.698;23.148;2023-04-15T11:15:24;1.45;;;0.25;;
10605;SDS011;5350;42.698;23.148;2023-04-15T11:17:56;0.68;;;0.40;;
10605;SDS011;5350;42.698;23.148;2023-04-15T11:20:23;0.85;;;0.30;;
10605;SDS011;5350;42.698;23.148;2023-04-15T11:22:51;1.73;;;0.40;;
10605;SDS011;5350;42.698;23.148;2023-04-15T11:25:22;3.55;;;1.55;;
10605;SDS011;5350;42.698;23.148;2023-04-15T11:27:50;1.60;;;0.73;;
10605;SDS011;5350;42.698;23.148;2023-04-15T11:30:19;2.20;;;0.50;;
10605;SDS011;5350;42.698;23.148;2023-04-15T11:32:47;3.50;;;0.57;;
10605;SDS011;5350;42.698;23.148;2023-04-15T11:35:16;3.53;;;0.90;;
10605;SDS011;5350;42.698;23.148;2023-04-15T11:37:43;3.38;;;1.33;;
10605;SDS011;5350;42.698;23.148;2023-04-15T11:40:10;2.60;;;1.42;;
10605;SDS011;5350;42.698;23.148;2023-04-15T11:42:39;1.92;;;1.30;;
10605;SDS011;5350;42.698;23.148;2023-04-15T11:45:06;3.22;;;1.10;;
10605;SDS011;5350;42.698;23.148;2023-04-15T11:47:33;2.38;;;0.63;;
10605;SDS011;5350;42.698;23.148;2023-04-15T11:50:12;0.57;;;0.20;;
10605;SDS011;5350;42.698;23.148;2023-04-15T11:52:42;0.82;;;0.30;;
10605;SDS011;5350;42.698;23.148;2023-04-15T11:55:18;1.17;;;0.20;;
10605;SDS011;5350;42.698;23.148;2023-04-15T11:57:44;1.52;;;0.40;;
10605;SDS011;5350;42.698;23.148;2023-04-15T12:00:11;2.40;;;0.30;;
10605;SDS011;5350;42.698;23.148;2023-04-15T12:02:41;1.30;;;0.20;;
10605;SDS011;5350;42.698;23.148;2023-04-15T12:05:08;1.52;;;0.40;;
10605;SDS011;5350;42.698;23.148;2023-04-15T12:10:25;1.25;;;0.60;;
10605;SDS011;5350;42.698;23.148;2023-04-15T12:12:52;0.68;;;0.38;;
10605;SDS011;5350;42.698;23.148;2023-04-15T12:15:20;1.50;;;0.47;;
10605;SDS011;5350;42.698;23.148;2023-04-15T12:17:48;1.10;;;0.22;;
10605;SDS011;5350;42.698;23.148;2023-04-15T12:20:20;1.08;;;0.35;;
10605;SDS011;5350;42.698;23.148;2023-04-15T12:22:50;0.60;;;0.30;;
10605;SDS011;5350;42.698;23.148;2023-04-15T12:25:18;2.42;;;0.40;;
10605;SDS011;5350;42.698;23.148;2023-04-15T12:27:59;0.52;;;0.38;;
10605;SDS011;5350;42.698;23.148;2023-04-15T12:30:26;1.92;;;0.30;;
10605;SDS011;5350;42.698;23.148;2023-04-15T12:32:53;2.95;;;0.60;;
10605;SDS011;5350;42.698;23.148;2023-04-15T12:35:19;0.68;;;0.30;;
10605;SDS011;5350;42.698;23.148;2023-04-15T12:37:47;0.57;;;0.40;;
10605;SDS011;5350;42.698;23.148;2023-04-15T12:40:13;1.45;;;0.22;;
10605;SDS011;5350;42.698;23.148;2023-04-15T12:42:42;1.25;;;0.20;;
10605;SDS011;5350;42.698;23.148;2023-04-15T12:45:08;0.68;;;0.28;;
10605;SDS011;5350;42.698;23.148;2023-04-15T12:47:35;0.75;;;0.20;;
10605;SDS011;5350;42.698;23.148;2023-04-15T12:50:02;1.15;;;0.43;;
10605;SDS011;5350;42.698;23.148;2023-04-15T12:52:29;1.35;;;0.40;;
10605;SDS011;5350;42.698;23.148;2023-04-15T12:54:56;1.45;;;0.52;;
10605;SDS011;5350;42.698;23.148;2023-04-15T12:57:23;2.08;;;0.30;;
10605;SDS011;5350;42.698;23.148;2023-04-15T12:59:51;1.35;;;0.40;;
10605;SDS011;5350;42.698;23.148;2023-04-15T13:02:17;1.38;;;0.30;;
10605;SDS011;5350;42.698;23.148;2023-04-15T13:04:45;2.65;;;0.50;;
10605;SDS011;5350;42.698;23.148;2023-04-15T13:07:11;1.42;;;0.77;;
10605;SDS011;5350;42.698;23.148;2023-04-15T13:09:39;2.63;;;0.55;;
10605;SDS011;5350;42.698;23.148;2023-04-15T13:12:06;1.58;;;0.38;;
10605;SDS011;5350;42.698;23.148;2023-04-15T13:14:33;0.38;;;0.30;;
10605;SDS011;5350;42.698;23.148;2023-04-15T13:17:01;1.75;;;0.50;;
10605;SDS011;5350;42.698;23.148;2023-04-15T13:19:32;1.15;;;0.50;;
10605;SDS011;5350;42.698;23.148;2023-04-15T13:22:00;2.83;;;0.40;;
10605;SDS011;5350;42.698;23.148;2023-04-15T13:24:27;1.90;;;0.60;;
10605;SDS011;5350;42.698;23.148;2023-04-15T13:26:54;2.05;;;0.40;;
10605;SDS011;5350;42.698;23.148;2023-04-15T13:29:23;2.47;;;0.30;;
10605;SDS011;5350;42.698;23.148;2023-04-15T13:31:49;3.83;;;1.15;;
10605;SDS011;5350;42.698;23.148;2023-04-15T13:34:17;2.83;;;0.40;;
10605;SDS011;5350;42.698;23.148;2023-04-15T13:36:44;2.80;;;0.40;;
10605;SDS011;5350;42.698;23.148;2023-04-15T13:39:11;0.77;;;0.20;;
10605;SDS011;5350;42.698;23.148;2023-04-15T13:41:38;2.15;;;0.30;;
10605;SDS011;5350;42.698;23.148;2023-04-15T13:44:05;2.78;;;2.40;;
10605;SDS011;5350;42.698;23.148;2023-04-15T13:46:32;1.08;;;0.30;;
10605;SDS011;5350;42.698;23.148;2023-04-15T13:48:59;1.45;;;0.70;;
10605;SDS011;5350;42.698;23.148;2023-04-15T13:51:27;1.30;;;0.30;;
10605;SDS011;5350;42.698;23.148;2023-04-15T13:53:53;0.40;;;0.30;;
10605;SDS011;5350;42.698;23.148;2023-04-15T13:56:20;2.05;;;0.38;;
10605;SDS011;5350;42.698;23.148;2023-04-15T13:58:47;1.25;;;0.45;;
10605;SDS011;5350;42.698;23.148;2023-04-15T14:01:14;1.45;;;0.60;;
10605;SDS011;5350;42.698;23.148;2023-04-15T14:03:41;1.83;;;0.60;;
10605;SDS011;5350;42.698;23.148;2023-04-15T14:06:07;0.38;;;0.32;;
10605;SDS011;5350;42.698;23.148;2023-04-15T14:08:35;1.70;;;0.28;;
10605;SDS011;5350;42.698;23.148;2023-04-15T14:11:02;3.15;;;0.20;;
10605;SDS011;5350;42.698;23.148;2023-04-15T14:13:29;2.50;;;0.90;;
10605;SDS011;5350;42.698;23.148;2023-04-15T14:15:56;1.75;;;0.25;;
10605;SDS011;5350;42.698;23.148;2023-04-15T14:18:23;0.80;;;0.22;;
10605;SDS011;5350;42.698;23.148;2023-04-15T14:20:50;0.77;;;0.20;;
10605;SDS011;5350;42.698;23.148;2023-04-15T14:23:16;1.10;;;0.40;;
10605;SDS011;5350;42.698;23.148;2023-04-15T14:25:44;1.52;;;0.40;;
10605;SDS011;5350;42.698;23.148;2023-04-15T14:28:11;1.23;;;0.22;;
10605;SDS011;5350;42.698;23.148;2023-04-15T14:30:38;1.38;;;0.45;;
10605;SDS011;5350;42.698;23.148;2023-04-15T14:33:05;0.80;;;0.38;;
10605;SDS011;5350;42.698;23.148;2023-04-15T14:35:31;0.22;;;0.20;;
10605;SDS011;5350;42.698;23.148;2023-04-15T14:37:58;2.25;;;0.40;;
10605;SDS011;5350;42.698;23.148;2023-04-15T14:40:25;0.77;;;0.40;;
10605;SDS011;5350;42.698;23.148;2023-04-15T14:42:53;0.60;;;0.20;;
10605;SDS011;5350;42.698;23.148;2023-04-15T14:45:20;1.23;;;0.17;;
10605;SDS011;5350;42.698;23.148;2023-04-15T14:47:46;1.33;;;0.20;;
10605;SDS011;5350;42.698;23.148;2023-04-15T14:50:13;0.30;;;0.20;;
10605;SDS011;5350;42.698;23.148;2023-04-15T14:52:40;0.60;;;0.30;;
10605;SDS011;5350;42.698;23.148;2023-04-15T14:55:07;0.90;;;0.13;;
10605;SDS011;5350;42.698;23.148;2023-04-15T14:57:35;1.05;;;0.20;;